createdAt,value
2022-08-25T00:00:19.023Z,68.56
2022-08-25T00:02:55.494Z,68.79
2022-08-25T00:05:29.219Z,68.55
2022-08-25T00:07:57.837Z,68.65
2022-08-25T00:10:25.863Z,68.77
2022-08-25T00:12:53.765Z,68.90
2022-08-25T00:15:23.031Z,68.73
2022-08-25T00:17:52.908Z,69.05
2022-08-25T00:20:20.895Z,69.08
2022-08-25T00:22:49.621Z,69.38
2022-08-25T00:25:19.148Z,69.59
2022-08-25T00:27:48.344Z,69.85
2022-08-25T00:30:17.577Z,69.95
2022-08-25T00:32:55.089Z,69.87
2022-08-25T00:35:25.817Z,70.41
2022-08-25T00:37:53.654Z,70.31
2022-08-25T00:40:46.416Z,70.26
2022-08-25T00:43:14.240Z,70.11
2022-08-25T00:45:41.914Z,70.29
2022-08-25T00:48:09.766Z,70.38
2022-08-25T00:50:37.499Z,70.58
2022-08-25T00:53:30.975Z,70.77
2022-08-25T00:55:59.281Z,71.02
2022-08-25T00:58:31.322Z,71.13
2022-08-25T01:01:24.534Z,71.49
2022-08-25T01:03:52.699Z,71.28
2022-08-25T01:06:20.638Z,71.42
2022-08-25T01:08:48.760Z,71.51
2022-08-25T01:11:16.659Z,71.34
2022-08-25T01:13:48.355Z,71.78
2022-08-25T01:16:17.089Z,71.91
2022-08-25T01:18:57.353Z,72.08
2022-08-25T01:21:27.122Z,72.17
2022-08-25T01:23:58.684Z,72.32
2022-08-25T01:26:30.975Z,72.54
2022-08-25T01:29:20.873Z,72.58
2022-08-25T01:31:51.384Z,72.77
2022-08-25T01:34:22.753Z,73.02
2022-08-25T01:36:51.011Z,72.83
2022-08-25T01:39:24.054Z,72.75
2022-08-25T01:42:28.468Z,72.46
2022-08-25T01:44:57.556Z,72.49
2022-08-25T01:47:25.314Z,72.49
2022-08-25T01:49:53.112Z,72.47
2022-08-25T01:52:29.756Z,72.54
2022-08-25T01:54:57.739Z,72.42
2022-08-25T01:57:31.707Z,72.36
2022-08-25T01:59:59.729Z,72.34
2022-08-25T02:02:54.089Z,72.41
2022-08-25T02:05:23.870Z,72.10
2022-08-25T02:07:51.694Z,72.68
2022-08-25T02:10:19.547Z,73.03
2022-08-25T02:13:12.995Z,73.31
2022-08-25T02:15:49.807Z,73.75
2022-08-25T02:18:19.719Z,74.17
2022-08-25T02:20:47.800Z,74.29
2022-08-25T02:23:18.854Z,74.38
2022-08-25T02:25:47.092Z,74.45
2022-08-25T02:28:15.017Z,74.50
2022-08-25T02:30:48.267Z,74.29
2022-08-25T02:33:16.051Z,74.09
2022-08-25T02:36:10.403Z,74.04
2022-08-25T02:38:38.871Z,73.93
2022-08-25T02:41:20.339Z,73.87
2022-08-25T02:43:49.061Z,73.88
2022-08-25T02:46:20.106Z,73.73
2022-08-25T02:48:48.933Z,73.87
2022-08-25T02:51:16.836Z,73.74
2022-08-25T02:53:46.340Z,73.68
2022-08-25T02:56:16.147Z,73.44
2022-08-25T02:58:46.108Z,73.80
2022-08-25T03:01:15.158Z,73.96
2022-08-25T03:03:45.893Z,73.76
2022-08-25T03:06:17.510Z,73.50
2022-08-25T03:08:45.873Z,73.59
2022-08-25T03:11:13.616Z,73.34
2022-08-25T03:13:41.746Z,73.43
2022-08-25T03:16:11.356Z,73.26
2022-08-25T03:18:42.131Z,73.31
2022-08-25T03:21:11.773Z,73.16
2022-08-25T03:23:41.238Z,73.39
2022-08-25T03:26:52.817Z,73.74
2022-08-25T03:29:23.759Z,73.76
2022-08-25T03:31:52.133Z,73.89
2022-08-25T03:34:45.187Z,73.55
2022-08-25T03:37:12.972Z,73.74
2022-08-25T03:39:41.812Z,73.99
2022-08-25T03:42:09.978Z,73.95
2022-08-25T03:45:03.451Z,73.84
2022-08-25T03:47:31.660Z,73.83
2022-08-25T03:49:59.403Z,73.99
2022-08-25T03:52:27.335Z,73.89
2022-08-25T03:54:55.056Z,73.97
2022-08-25T03:57:24.748Z,73.87
2022-08-25T03:59:52.802Z,73.54
2022-08-25T04:02:20.677Z,73.65
2022-08-25T04:04:48.504Z,73.45
2022-08-25T04:07:16.842Z,73.46
2022-08-25T04:09:44.689Z,74.02
2022-08-25T04:12:12.494Z,74.15
2022-08-25T04:14:42.126Z,74.02
2022-08-25T04:17:09.853Z,73.76
2022-08-25T04:19:38.415Z,73.77
2022-08-25T04:22:06.567Z,73.71
2022-08-25T04:24:34.427Z,73.49
2022-08-25T04:27:02.387Z,73.69
2022-08-25T04:29:30.188Z,73.85
2022-08-25T04:31:58.018Z,73.55
2022-08-25T04:34:30.337Z,73.66
2022-08-25T04:37:03.830Z,73.25
2022-08-25T04:39:32.164Z,73.09
2022-08-25T04:42:01.351Z,73.12
2022-08-25T04:44:30.703Z,73.43
2022-08-25T04:46:59.346Z,73.32
2022-08-25T04:49:27.513Z,73.27
2022-08-25T04:51:57.692Z,73.02
2022-08-25T04:54:25.675Z,72.91
2022-08-25T04:56:58.763Z,72.68
2022-08-25T04:59:29.447Z,72.47
2022-08-25T05:02:02.755Z,72.05
2022-08-25T05:04:33.064Z,72.02
2022-08-25T05:07:01.963Z,71.90
2022-08-25T05:09:32.117Z,71.66
2022-08-25T05:12:04.678Z,71.50
2022-08-25T05:14:32.965Z,71.34
2022-08-25T05:17:02.242Z,71.20
2022-08-25T05:19:30.591Z,70.95
2022-08-25T05:21:58.431Z,70.47
2022-08-25T05:24:26.592Z,70.28
2022-08-25T05:26:54.389Z,69.58
2022-08-25T05:29:22.649Z,69.13
2022-08-25T05:31:50.958Z,68.56
2022-08-25T05:34:44.521Z,68.52
2022-08-25T05:37:12.382Z,68.55
2022-08-25T05:40:06.957Z,68.46
2022-08-25T05:42:35.870Z,68.07
2022-08-25T05:45:07.830Z,68.16
2022-08-25T05:47:35.580Z,67.67
2022-08-25T05:50:03.933Z,67.17
2022-08-25T05:52:56.647Z,66.63
2022-08-25T05:55:24.510Z,66.71
2022-08-25T05:57:52.390Z,66.32
2022-08-25T06:00:20.271Z,65.74
2022-08-25T06:02:49.953Z,65.41
2022-08-25T06:05:20.807Z,65.75
2022-08-25T06:07:50.030Z,65.73
2022-08-25T06:10:20.366Z,65.41
2022-08-25T06:12:50.809Z,65.01
2022-08-25T06:15:21.372Z,64.38
2022-08-25T06:17:50.237Z,64.47
2022-08-25T06:20:25.387Z,64.30
2022-08-25T06:22:55.012Z,64.44
2022-08-25T06:25:25.086Z,64.08
2022-08-25T06:27:55.353Z,63.61
2022-08-25T06:30:28.549Z,62.90
2022-08-25T06:32:57.934Z,62.69
2022-08-25T06:35:25.642Z,61.95
2022-08-25T06:37:54.997Z,61.70
2022-08-25T06:40:47.971Z,61.11
2022-08-25T06:43:22.479Z,60.86
2022-08-25T06:45:54.648Z,60.65
2022-08-25T06:48:24.058Z,60.60
2022-08-25T06:50:51.743Z,59.80
2022-08-25T06:53:19.655Z,59.91
2022-08-25T06:55:56.825Z,59.34
2022-08-25T06:58:25.150Z,59.18
2022-08-25T07:00:53.394Z,58.25
2022-08-25T07:05:56.835Z,57.45
2022-08-25T07:08:24.580Z,56.22
2022-08-25T07:10:52.278Z,55.33
2022-08-25T07:13:20.134Z,55.15
2022-08-25T07:15:47.864Z,54.04
2022-08-25T07:18:18.342Z,53.50
2022-08-25T07:20:45.976Z,53.53
2022-08-25T07:23:13.536Z,53.36
2022-08-25T07:25:41.222Z,52.17
2022-08-25T07:28:09.333Z,51.01
2022-08-25T07:30:38.300Z,50.81
2022-08-25T07:33:06.918Z,50.41
2022-08-25T07:35:37.790Z,49.36
2022-08-25T07:38:09.094Z,49.04
2022-08-25T07:40:43.273Z,48.73
2022-08-25T07:43:13.715Z,48.67
2022-08-25T07:45:49.094Z,47.91
2022-08-25T07:48:20.152Z,48.23
2022-08-25T07:50:49.097Z,47.97
2022-08-25T07:53:18.062Z,47.73
2022-08-25T07:55:48.571Z,47.59
2022-08-25T07:58:16.733Z,47.30
2022-08-25T08:00:48.668Z,47.14
2022-08-25T08:03:44.786Z,47.55
2022-08-25T08:06:13.547Z,47.45
2022-08-25T08:08:45.698Z,47.77
2022-08-25T08:11:20.659Z,47.06
2022-08-25T08:13:54.569Z,46.86
2022-08-25T08:16:28.035Z,46.33
2022-08-25T08:18:57.491Z,45.34
2022-08-25T08:21:32.519Z,45.33
2022-08-25T08:24:01.379Z,45.50
2022-08-25T08:26:55.360Z,45.96
2022-08-25T08:29:20.338Z,45.89
2022-08-25T08:31:50.556Z,45.47
2022-08-25T08:34:18.733Z,45.24
2022-08-25T08:36:46.584Z,45.13
2022-08-25T08:39:14.317Z,44.86
2022-08-25T08:42:11.653Z,43.76
2022-08-25T08:44:56.126Z,42.63
2022-08-25T08:47:34.301Z,43.08
2022-08-25T08:50:30.805Z,42.20
2022-08-25T08:53:13.753Z,41.42
2022-08-25T08:55:52.722Z,42.31
2022-08-25T08:58:28.927Z,41.38
2022-08-25T09:01:02.027Z,41.59
2022-08-25T09:03:55.206Z,41.99
2022-08-25T09:06:34.273Z,41.96
2022-08-25T09:09:06.659Z,41.68
2022-08-25T09:12:23.609Z,41.20
2022-08-25T09:15:12.672Z,41.96
2022-08-25T09:18:06.171Z,42.10
2022-08-25T09:20:36.975Z,41.78
2022-08-25T09:23:07.647Z,41.73
2022-08-25T09:25:53.207Z,41.38
2022-08-25T09:28:30.223Z,41.77
2022-08-25T09:31:20.009Z,41.57
2022-08-25T09:33:47.914Z,41.71
2022-08-25T09:36:16.727Z,41.95
2022-08-25T09:38:47.605Z,41.26
2022-08-25T09:41:35.956Z,40.92
2022-08-25T09:44:05.292Z,40.92
2022-08-25T09:46:33.890Z,39.72
2022-08-25T09:49:13.617Z,38.93
2022-08-25T09:51:43.447Z,38.41
2022-08-25T09:54:14.419Z,38.57
2022-08-25T09:56:49.764Z,37.58
2022-08-25T09:59:34.246Z,38.04
2022-08-25T10:02:05.464Z,38.75
2022-08-25T10:04:40.049Z,37.91
2022-08-25T10:07:30.428Z,36.78
2022-08-25T10:10:08.512Z,35.12
2022-08-25T10:12:44.137Z,35.61
2022-08-25T10:15:32.668Z,33.82
2022-08-25T10:18:15.436Z,34.84
2022-08-25T10:21:01.926Z,33.26
2022-08-25T10:23:30.778Z,33.31
2022-08-25T10:26:03.756Z,32.49
2022-08-25T10:28:59.827Z,31.81
2022-08-25T10:31:45.149Z,32.46
2022-08-25T10:34:31.616Z,33.15
2022-08-25T10:37:13.580Z,32.31
2022-08-25T10:39:47.946Z,31.99
2022-08-25T10:42:39.650Z,32.46
2022-08-25T10:45:50.914Z,30.94
2022-08-25T10:48:42.332Z,30.44
2022-08-25T10:51:28.688Z,30.02
2022-08-25T10:55:05.046Z,30.58
2022-08-25T10:57:39.993Z,30.91
2022-08-25T11:00:14.217Z,29.76
2022-08-25T11:03:07.680Z,29.26
2022-08-25T11:05:43.613Z,30.10
2022-08-25T11:08:35.235Z,30.09
2022-08-25T11:11:13.300Z,29.88
2022-08-25T11:13:47.789Z,29.82
2022-08-25T11:16:48.597Z,29.69
2022-08-25T11:19:22.378Z,29.85
2022-08-25T11:22:21.174Z,29.10
2022-08-25T11:25:18.859Z,28.84
2022-08-25T11:27:55.486Z,29.39
2022-08-25T11:30:23.701Z,29.06
2022-08-25T11:32:55.671Z,29.10
2022-08-25T11:35:34.277Z,29.31
2022-08-25T11:38:14.170Z,29.45
2022-08-25T11:40:57.578Z,29.19
2022-08-25T11:43:56.429Z,30.04
2022-08-25T11:46:57.611Z,29.98
2022-08-25T11:49:52.154Z,29.76
2022-08-25T11:52:32.051Z,28.39
2022-08-25T11:55:11.794Z,29.05
2022-08-25T11:57:40.792Z,28.15
2022-08-25T12:00:13.385Z,28.17
2022-08-25T12:02:51.328Z,29.16
2022-08-25T12:05:19.041Z,29.12
2022-08-25T12:07:47.339Z,28.35
2022-08-25T12:10:57.318Z,27.98
2022-08-25T12:13:53.313Z,27.64
2022-08-25T12:16:46.905Z,27.59
2022-08-25T12:19:29.143Z,27.83
2022-08-25T12:22:04.075Z,27.28
2022-08-25T12:24:47.732Z,27.24
2022-08-25T12:27:25.059Z,27.03
2022-08-25T12:30:18.611Z,27.91
2022-08-25T12:33:13.727Z,26.71
2022-08-25T12:35:58.528Z,27.00
2022-08-25T12:39:24.634Z,27.86
2022-08-25T12:41:58.414Z,28.79
2022-08-25T12:44:40.337Z,27.68
2022-08-25T12:47:29.370Z,27.65
2022-08-25T12:50:39.337Z,27.61
2022-08-25T12:53:29.488Z,27.49
2022-08-25T12:56:05.444Z,27.15
2022-08-25T12:59:00.358Z,27.73
2022-08-25T13:01:36.846Z,27.36
2022-08-25T13:04:30.858Z,26.71
2022-08-25T13:07:19.705Z,26.95
2022-08-25T13:10:17.834Z,28.27
2022-08-25T13:13:07.214Z,28.16
2022-08-25T13:15:57.957Z,26.93
2022-08-25T13:18:31.679Z,26.35
2022-08-25T13:21:24.573Z,26.67
2022-08-25T13:24:01.658Z,27.74
2022-08-25T13:26:48.041Z,28.03
2022-08-25T13:29:22.244Z,28.22
2022-08-25T13:32:12.648Z,27.66
2022-08-25T13:34:42.864Z,28.85
2022-08-25T13:37:30.220Z,28.31
2022-08-25T13:40:20.076Z,27.83
2022-08-25T13:43:08.038Z,26.57
2022-08-25T13:45:46.668Z,26.19
2022-08-25T13:48:49.388Z,26.28
2022-08-25T13:51:31.476Z,25.52
2022-08-25T13:54:06.538Z,25.25
2022-08-25T13:56:43.856Z,25.41
2022-08-25T13:59:23.626Z,25.02
2022-08-25T14:01:54.358Z,25.44
2022-08-25T14:04:32.296Z,25.65
2022-08-25T14:07:34.099Z,25.11
2022-08-25T14:10:07.423Z,25.00
2022-08-25T14:12:45.178Z,24.56
2022-08-25T14:15:20.177Z,25.31
2022-08-25T14:18:09.748Z,24.66
2022-08-25T14:20:54.816Z,24.46
2022-08-25T14:23:27.580Z,24.85
2022-08-25T14:25:58.008Z,24.80
2022-08-25T14:28:29.518Z,24.98
2022-08-25T14:31:01.272Z,24.39
2022-08-25T14:33:33.633Z,23.93
2022-08-25T14:36:06.245Z,24.14
2022-08-25T14:38:35.709Z,24.29
2022-08-25T14:43:40.213Z,24.78
2022-08-25T14:46:15.626Z,25.00
2022-08-25T14:48:46.940Z,25.22
2022-08-25T14:51:17.353Z,25.52
2022-08-25T14:53:45.745Z,26.00
2022-08-25T14:56:14.192Z,25.73
2022-08-25T14:58:50.868Z,25.76
2022-08-25T15:01:28.513Z,25.60
2022-08-25T15:04:03.720Z,25.87
2022-08-25T15:06:32.457Z,25.79
2022-08-25T15:09:11.260Z,25.64
2022-08-25T15:11:42.797Z,25.67
2022-08-25T15:14:28.772Z,25.81
2022-08-25T15:17:05.646Z,25.23
2022-08-25T15:19:39.340Z,25.61
2022-08-25T15:22:07.799Z,25.50
2022-08-25T15:24:39.047Z,25.48
2022-08-25T15:27:10.233Z,25.98
2022-08-25T15:29:38.087Z,25.55
2022-08-25T15:32:10.550Z,25.81
2022-08-25T15:34:39.262Z,25.59
2022-08-25T15:37:13.969Z,25.80
2022-08-25T15:39:44.864Z,25.82
2022-08-25T15:42:14.595Z,26.01
2022-08-25T15:44:43.023Z,26.35
2022-08-25T15:47:26.600Z,26.41
2022-08-25T15:50:10.129Z,26.79
2022-08-25T15:52:46.480Z,26.54
2022-08-25T15:55:21.924Z,26.58
2022-08-25T15:57:50.241Z,26.45
2022-08-25T16:00:18.926Z,26.33
2022-08-25T16:02:50.027Z,26.65
2022-08-25T16:05:20.450Z,26.91
2022-08-25T16:07:53.660Z,26.77
2022-08-25T16:10:22.005Z,26.67
2022-08-25T16:12:49.775Z,26.50
2022-08-25T16:15:17.606Z,26.44
2022-08-25T16:17:50.612Z,26.45
2022-08-25T16:20:19.943Z,26.44
2022-08-25T16:22:49.439Z,26.48
2022-08-25T16:25:19.660Z,26.53
2022-08-25T16:27:48.521Z,26.50
2022-08-25T16:30:17.612Z,26.35
2022-08-25T16:32:47.002Z,26.79
2022-08-25T16:35:15.546Z,26.44
2022-08-25T16:37:44.475Z,26.88
2022-08-25T16:40:14.709Z,27.00
2022-08-25T16:42:42.946Z,26.93
2022-08-25T16:45:11.973Z,27.22
2022-08-25T16:47:39.976Z,27.44
2022-08-25T16:50:11.028Z,27.48
2022-08-25T16:52:58.276Z,27.68
2022-08-25T16:55:38.763Z,27.89
2022-08-25T16:58:08.288Z,28.04
2022-08-25T17:00:41.236Z,28.45
2022-08-25T17:03:11.792Z,28.35
2022-08-25T17:05:42.856Z,28.40
2022-08-25T17:08:30.532Z,28.84
2022-08-25T17:11:12.498Z,28.81
2022-08-25T17:13:44.526Z,28.94
2022-08-25T17:16:14.556Z,29.06
2022-08-25T17:18:43.083Z,29.32
2022-08-25T17:21:24.632Z,29.67
2022-08-25T17:23:58.010Z,29.70
2022-08-25T17:26:28.902Z,29.94
2022-08-25T17:29:00.820Z,29.86
2022-08-25T17:31:30.703Z,30.37
2022-08-25T17:33:59.534Z,30.39
2022-08-25T17:36:27.928Z,30.61
2022-08-25T17:38:57.022Z,30.67
2022-08-25T17:41:26.118Z,30.85
2022-08-25T17:43:54.046Z,30.79
2022-08-25T17:46:24.731Z,31.15
2022-08-25T17:48:53.230Z,31.32
2022-08-25T17:51:22.697Z,31.43
2022-08-25T17:53:53.906Z,31.58
2022-08-25T17:56:27.255Z,31.83
2022-08-25T17:58:56.502Z,31.81
2022-08-25T18:01:31.165Z,32.06
2022-08-25T18:04:00.484Z,32.47
2022-08-25T18:06:30.291Z,32.52
2022-08-25T18:09:04.928Z,32.85
2022-08-25T18:11:33.470Z,33.03
2022-08-25T18:14:23.383Z,32.89
2022-08-25T18:16:57.342Z,33.19
2022-08-25T18:19:25.178Z,33.06
2022-08-25T18:21:53.054Z,33.54
2022-08-25T18:24:24.505Z,33.50
2022-08-25T18:26:53.983Z,33.84
2022-08-25T18:29:23.100Z,33.83
2022-08-25T18:31:57.078Z,33.46
2022-08-25T18:34:27.607Z,33.72
2022-08-25T18:37:18.584Z,33.75
2022-08-25T18:40:05.241Z,33.85
2022-08-25T18:42:36.618Z,33.63
2022-08-25T18:45:06.647Z,33.96
2022-08-25T18:47:35.044Z,33.85
2022-08-25T18:50:04.727Z,34.11
2022-08-25T18:52:35.450Z,34.10
2022-08-25T18:55:03.850Z,34.24
2022-08-25T18:57:32.836Z,34.35
2022-08-25T19:00:01.673Z,34.70
2022-08-25T19:02:30.826Z,35.04
2022-08-25T19:05:01.783Z,34.97
2022-08-25T19:07:35.569Z,34.92
2022-08-25T19:10:09.075Z,34.95
2022-08-25T19:12:37.496Z,34.92
2022-08-25T19:15:05.943Z,35.20
2022-08-25T19:17:37.871Z,35.25
2022-08-25T19:20:11.010Z,35.43
2022-08-25T19:22:42.081Z,35.10
2022-08-25T19:25:11.919Z,35.32
2022-08-25T19:27:42.807Z,35.61
2022-08-25T19:30:17.011Z,35.91
2022-08-25T19:32:48.444Z,35.91
2022-08-25T19:35:39.615Z,36.16
2022-08-25T19:38:34.244Z,35.77
2022-08-25T19:40:59.942Z,36.19
2022-08-25T19:43:28.168Z,36.18
2022-08-25T19:45:56.363Z,36.55
2022-08-25T19:48:24.650Z,36.61
2022-08-25T19:50:57.020Z,36.76
2022-08-25T19:53:25.570Z,36.50
2022-08-25T19:55:54.745Z,36.63
2022-08-25T19:58:23.520Z,36.79
2022-08-25T20:00:52.488Z,37.15
2022-08-25T20:03:21.750Z,37.00
2022-08-25T20:05:49.803Z,37.57
2022-08-25T20:08:17.978Z,37.40
2022-08-25T20:10:58.531Z,37.38
2022-08-25T20:13:26.332Z,37.34
2022-08-25T20:15:57.676Z,37.62
2022-08-25T20:18:26.657Z,37.43
2022-08-25T20:20:56.523Z,37.47
2022-08-25T20:23:45.599Z,37.58
2022-08-25T20:26:13.556Z,37.75
2022-08-25T20:28:42.257Z,37.95
2022-08-25T20:31:10.698Z,37.87
2022-08-25T20:33:38.546Z,38.14
2022-08-25T20:36:08.368Z,38.21
2022-08-25T20:38:36.647Z,38.52
2022-08-25T20:41:10.156Z,38.83
2022-08-25T20:43:40.387Z,38.96
2022-08-25T20:46:09.780Z,39.10
2022-08-25T20:48:38.900Z,39.04
2022-08-25T20:51:08.838Z,39.03
2022-08-25T20:53:38.181Z,39.64
2022-08-25T20:56:11.267Z,39.67
2022-08-25T20:59:05.051Z,40.02
2022-08-25T21:01:39.857Z,40.37
2022-08-25T21:04:14.499Z,40.38
2022-08-25T21:06:44.511Z,40.34
2022-08-25T21:09:16.126Z,40.47
2022-08-25T21:11:46.229Z,40.30
2022-08-25T21:14:15.524Z,40.78
2022-08-25T21:16:48.309Z,40.89
2022-08-25T21:19:26.701Z,40.76
2022-08-25T21:22:00.385Z,41.28
2022-08-25T21:24:29.482Z,41.31
2022-08-25T21:27:23.981Z,41.92
2022-08-25T21:29:54.832Z,42.13
2022-08-25T21:33:02.296Z,42.76
2022-08-25T21:35:39.809Z,42.49
2022-08-25T21:38:07.770Z,42.61
2022-08-25T21:40:37.051Z,43.13
2022-08-25T21:43:04.964Z,43.16
2022-08-25T21:45:42.189Z,43.08
2022-08-25T21:48:15.750Z,43.03
2022-08-25T21:50:45.223Z,42.88
2022-08-25T21:53:13.259Z,43.23
2022-08-25T21:55:42.153Z,43.71
2022-08-25T21:58:10.332Z,44.25
2022-08-25T22:00:38.988Z,44.54
2022-08-25T22:03:09.181Z,44.88
2022-08-25T22:05:37.765Z,44.67
2022-08-25T22:08:05.706Z,44.81
2022-08-25T22:10:33.648Z,44.75
2022-08-25T22:13:02.935Z,44.63
2022-08-25T22:15:31.079Z,44.83
2022-08-25T22:17:59.116Z,45.02
2022-08-25T22:20:28.830Z,44.86
2022-08-25T22:22:57.075Z,44.99
2022-08-25T22:25:25.061Z,45.07
2022-08-25T22:27:56.697Z,45.37
2022-08-25T22:30:26.097Z,45.63
2022-08-25T22:32:59.190Z,45.88
2022-08-25T22:35:28.203Z,46.27
2022-08-25T22:37:56.155Z,46.31
2022-08-25T22:40:24.210Z,46.35
2022-08-25T22:42:52.352Z,46.23
2022-08-25T22:45:20.455Z,46.43
2022-08-25T22:47:48.742Z,46.67
2022-08-25T22:50:18.110Z,46.76
2022-08-25T22:52:48.376Z,46.93
2022-08-25T22:55:16.882Z,46.79
2022-08-25T22:57:44.900Z,46.91
2022-08-25T23:00:40.637Z,47.32
2022-08-25T23:03:12.092Z,47.83
2022-08-25T23:05:42.387Z,47.91
2022-08-25T23:08:10.356Z,48.49
2022-08-25T23:10:38.897Z,48.46
2022-08-25T23:13:07.432Z,48.63
2022-08-25T23:15:35.408Z,48.66
2022-08-25T23:18:04.813Z,48.56
2022-08-25T23:20:51.202Z,48.23
2022-08-25T23:23:21.156Z,48.26
2022-08-25T23:25:51.638Z,48.32
2022-08-25T23:28:20.080Z,48.52
2022-08-25T23:30:57.123Z,48.55
2022-08-25T23:33:31.433Z,48.33
2022-08-25T23:36:02.094Z,48.42
2022-08-25T23:38:30.188Z,48.43
2022-08-25T23:40:59.104Z,48.75
2022-08-25T23:43:53.309Z,48.95
2022-08-25T23:46:24.605Z,49.28
2022-08-25T23:48:55.029Z,49.54
2022-08-25T23:51:33.662Z,49.30
2022-08-25T23:54:06.584Z,49.52
2022-08-25T23:56:37.840Z,49.93
2022-08-25T23:59:14.423Z,49.98
